Milesovka, Czech Republic
Current Conditions -  °F | °C
As of 12:30 PM on Saturday 22 Nov 2014 (Local Time) from LKPR Reporting Station
Overcast Overcast  
Wind Chill: 35°   Ceiling: 1900
Heat Index: 39°   Visibility: 6mi
Dew Point: 32°   Wind: 6mph
Humidity: 75%   Direction: 170°S
Pressure: 30.24"   Gusts: NA
Location:  50.55°N, 13.93°E
Report Text: LKPR 221030Z 17005KT 9999 OVC019 04/M00 Q1024 NOSIG
Loading
Personal Weather Stations






























Interactive Weather Map New forecast layout! Learn more

10-Day Weather Forecast

Advertisements
Track Severe Weather on mobile